Time;durP1;ratioP1;P1;durP2;ratioP2;P2;SDS_P1;SDS_P2;PMS_P1;PMS_P2;Temp;Humidity;BMP_temperature;BMP_pressure;BME280_temperature;BME280_humidity;BME280_pressure;Samples;Min_cycle;Max_cycle;Signal;HPM_P1;HPM_P2
2022/08/03 00:01:48;;;;;;;6.35;2.85;;;;;;;23.47;55.90;100551.53;4151484;28;20061;-67
2022/08/03 00:03:51;;;;;;;5.47;2.90;;;;;;;23.45;55.95;100557.81;4165657;28;20041;-67
2022/08/03 00:05:54;;;;;;;6.45;2.78;;;;;;;23.40;56.35;100549.16;4162671;28;20060;-67
2022/08/03 00:08:06;;;;;;;8.60;3.50;;;;;;;23.33;56.42;100549.41;4166752;28;20038;-67
2022/08/03 00:10:11;;;;;;;10.82;3.17;;;;;;;23.31;56.07;100548.56;4169247;28;20487;-67
2022/08/03 00:12:14;;;;;;;8.70;3.58;;;;;;;23.28;55.80;100556.66;4197998;28;20127;-67
2022/08/03 00:14:17;;;;;;;13.27;3.28;;;;;;;23.23;55.37;100558.63;4167252;28;20052;-67
2022/08/03 00:16:21;;;;;;;7.38;3.58;;;;;;;23.23;55.17;100552.44;4164726;28;20550;-67
2022/08/03 00:18:25;;;;;;;9.80;3.83;;;;;;;23.23;55.19;100552.44;4165416;28;20037;-67
2022/08/03 00:20:27;;;;;;;8.25;2.92;;;;;;;23.26;55.35;100550.56;4165462;28;20036;-67
2022/08/03 00:22:30;;;;;;;8.13;3.33;;;;;;;23.22;55.95;100556.00;4166156;28;20499;-67
2022/08/03 00:24:35;;;;;;;7.70;3.40;;;;;;;23.18;56.03;100549.97;4164484;28;20506;-67
2022/08/03 00:26:37;;;;;;;9.70;3.30;;;;;;;23.12;55.91;100558.16;4165269;28;20168;-67
2022/08/03 00:28:40;;;;;;;8.82;3.25;;;;;;;23.04;55.95;100557.53;4198232;28;20072;-67
2022/08/03 00:30:43;;;;;;;6.95;3.30;;;;;;;23.01;55.57;100554.06;4166424;28;20048;-67
2022/08/03 00:32:48;;;;;;;8.55;3.63;;;;;;;22.98;55.24;100551.53;4164776;28;20051;-67
2022/08/03 00:34:51;;;;;;;12.95;3.40;;;;;;;22.97;55.21;100546.28;4165496;28;20065;-67
2022/08/03 00:37:00;;;;;;;7.93;3.30;;;;;;;22.94;55.42;100552.56;4147889;28;20056;-67
2022/08/03 00:39:04;;;;;;;14.93;3.92;;;;;;;22.97;54.65;100549.78;4165982;28;20040;-67
2022/08/03 00:41:06;;;;;;;10.07;4.00;;;;;;;23.00;54.97;100549.69;4166341;28;20030;-67
2022/08/03 00:43:10;;;;;;;11.07;3.40;;;;;;;23.06;54.96;100550.38;4165834;28;20041;-67
2022/08/03 00:45:13;;;;;;;5.43;3.47;;;;;;;23.02;55.01;100545.16;4165255;28;20486;-67
2022/08/03 00:47:16;;;;;;;7.25;3.08;;;;;;;23.04;55.23;100547.75;4156777;28;20033;-67
2022/08/03 00:49:20;;;;;;;11.85;4.05;;;;;;;23.02;55.26;100542.50;4164956;28;20042;-67
2022/08/03 00:51:23;;;;;;;;;;;;;;;22.87;56.26;100545.75;4164646;28;20103;-67
2022/08/03 00:53:27;;;;;;;9.57;3.50;;;;;;;22.86;56.16;100549.31;4163844;28;19959;-67
2022/08/03 00:55:30;;;;;;;11.83;3.70;;;;;;;22.87;56.26;100545.75;4166024;28;20048;-67
2022/08/03 00:57:34;;;;;;;8.63;4.07;;;;;;;22.88;56.20;100546.59;4148224;28;20285;-67
2022/08/03 00:59:38;;;;;;;13.13;3.70;;;;;;;22.89;56.31;100543.03;4165972;28;20041;-67
2022/08/03 01:01:41;;;;;;;9.30;3.45;;;;;;;22.88;56.26;100543.94;4165763;28;20380;-67
2022/08/03 01:03:44;;;;;;;8.85;3.80;;;;;;;22.86;56.40;100543.16;4147326;28;20420;-67
2022/08/03 01:05:55;;;;;;;9.70;4.15;;;;;;;22.83;56.37;100544.97;4165848;28;20479;-67
2022/08/03 01:08:05;;;;;;;11.05;3.08;;;;;;;22.82;56.02;100539.72;4165982;28;20499;-67
2022/08/03 01:10:17;;;;;;;12.18;3.05;;;;;;;22.86;55.77;100537.84;4165788;28;20041;-67
2022/08/03 01:12:26;;;;;;;12.30;3.50;;;;;;;22.84;55.51;100536.09;4165536;28;20045;-67
2022/08/03 01:14:38;;;;;;;11.85;3.25;;;;;;;22.84;55.23;100536.09;4163696;28;20311;-67
2022/08/03 01:16:48;;;;;;;12.63;3.70;;;;;;;22.81;54.84;100535.34;4170196;28;20045;-67
2022/08/03 01:18:58;;;;;;;11.05;3.45;;;;;;;22.79;54.70;100532.78;4165359;28;20419;-67
2022/08/03 01:21:07;;;;;;;8.45;3.70;;;;;;;22.80;54.66;100528.31;4173416;28;20510;-67
2022/08/03 01:23:45;;;;;;;8.85;3.55;;;;;;;22.78;54.90;100535.44;4163137;28;20049;-67
2022/08/03 01:26:05;;;;;;;8.57;3.85;;;;;;;22.71;55.18;100528.66;4165230;28;20042;-67
2022/08/03 01:28:28;;;;;;;9.00;3.28;;;;;;;22.71;54.87;100529.50;4164679;28;20038;-67
2022/08/03 01:30:36;;;;;;;8.02;3.38;;;;;;;22.70;54.51;100526.91;4157975;28;20045;-68
2022/08/03 01:32:46;;;;;;;10.90;2.95;;;;;;;22.72;54.12;100528.59;4165252;28;20042;-68
2022/08/03 01:35:06;;;;;;;9.25;3.33;;;;;;;22.67;53.73;100528.75;4163201;28;20568;-68
2022/08/03 01:37:12;;;;;;;8.50;3.15;;;;;;;22.71;53.21;100526.00;4165298;28;20038;-68
2022/08/03 01:39:17;;;;;;;9.07;3.75;;;;;;;22.70;52.83;100526.91;4165828;28;20480;-68
2022/08/03 01:41:21;;;;;;;;;;;;;;;22.54;52.99;100529.22;4165693;28;20500;-68
2022/08/03 01:43:27;;;;;;;10.88;3.28;;;;;;;22.61;53.02;100528.97;4164082;28;19924;-68
2022/08/03 01:45:54;;;;;;;11.27;3.47;;;;;;;22.64;52.70;100523.53;4165065;28;20037;-68
2022/08/03 01:47:58;;;;;;;8.13;2.63;;;;;;;22.68;52.49;100521.66;4165228;28;20041;-67
2022/08/03 01:50:03;;;;;;;14.65;3.63;;;;;;;22.71;51.93;100523.34;4147655;28;20050;-68
2022/08/03 01:52:07;;;;;;;8.32;2.83;;;;;;;22.71;51.86;100523.34;4164785;28;20542;-68
2022/08/03 01:54:13;;;;;;;8.15;3.10;;;;;;;22.72;51.82;100522.41;4164384;28;20038;-68
2022/08/03 01:56:18;;;;;;;7.88;2.92;;;;;;;22.72;51.78;100520.66;4156959;28;20547;-67
2022/08/03 01:58:24;;;;;;;7.22;2.85;;;;;;;22.74;51.65;100523.25;4163866;28;20147;-67
2022/08/03 02:00:28;;;;;;;6.90;2.88;;;;;;;22.73;51.74;100526.81;4165191;28;20030;-67
2022/08/03 02:02:33;;;;;;;6.00;2.60;;;;;;;22.71;51.40;100526.88;4163663;28;20033;-67
2022/08/03 02:04:38;;;;;;;8.25;2.60;;;;;;;22.67;51.38;100518.13;4164074;28;20411;-67
2022/08/03 02:06:42;;;;;;;8.38;2.92;;;;;;;22.62;51.93;100519.25;4164870;28;20045;-67
2022/08/03 02:09:06;;;;;;;8.50;2.70;;;;;;;22.56;52.35;100512.38;4165000;28;20120;-67
2022/08/03 02:11:09;;;;;;;;;;;;;;;22.38;52.60;100520.94;4165507;28;20037;-67
2022/08/03 02:13:13;;;;;;;5.90;3.08;;;;;;;22.42;52.46;100514.63;4162123;28;19921;-67
2022/08/03 02:15:18;;;;;;;8.63;2.97;;;;;;;22.48;52.36;100517.91;4144528;28;20049;-68
2022/08/03 02:17:22;;;;;;;8.07;2.83;;;;;;;22.49;51.92;100516.16;4147089;28;20045;-68
2022/08/03 02:19:45;;;;;;;8.25;3.10;;;;;;;22.51;51.66;100516.09;4165065;28;20125;-68
2022/08/03 02:21:51;;;;;;;7.65;3.17;;;;;;;22.48;51.57;100517.06;4163534;28;20480;-68
2022/08/03 02:24:04;;;;;;;7.18;2.63;;;;;;;22.50;51.47;100517.84;4163701;28;20044;-67
2022/08/03 02:26:11;;;;;;;10.90;3.50;;;;;;;22.51;51.34;100527.53;4162677;28;20049;-67
2022/08/03 02:28:18;;;;;;;11.82;3.63;;;;;;;22.48;51.09;100525.00;4178878;28;20044;-68
2022/08/03 02:30:22;;;;;;;12.60;3.65;;;;;;;22.45;51.32;100518.03;4166626;28;20527;-68
2022/08/03 02:32:30;;;;;;;13.52;3.42;;;;;;;22.47;51.37;100520.63;4162553;28;20041;-68
2022/08/03 02:34:35;;;;;;;12.60;3.15;;;;;;;22.45;51.41;100517.16;4162430;28;20487;-68
2022/08/03 02:36:42;;;;;;;10.15;3.22;;;;;;;22.43;51.37;100516.38;4152197;28;20064;-67
2022/08/03 02:38:49;;;;;;;10.25;3.35;;;;;;;22.38;51.60;100516.50;4159360;28;20030;-67
2022/08/03 02:40:55;;;;;;;10.60;3.03;;;;;;;22.30;52.20;100519.38;4164337;28;20042;-67
2022/08/03 02:43:02;;;;;;;9.60;3.38;;;;;;;22.29;51.99;100517.63;4164834;28;20033;-67
2022/08/03 02:45:08;;;;;;;13.35;2.97;;;;;;;22.27;51.91;100514.19;4162751;28;20045;-68
2022/08/03 02:47:14;;;;;;;10.40;3.40;;;;;;;22.24;51.91;100513.41;4163109;28;20049;-68
2022/08/03 02:49:18;;;;;;;8.32;3.30;;;;;;;22.21;52.17;100517.06;4164211;28;20045;-68
2022/08/03 02:51:44;;;;;;;11.02;3.50;;;;;;;22.21;52.22;100519.69;4163280;28;20051;-68
2022/08/03 02:53:48;;;;;;;5.50;3.03;;;;;;;22.18;52.36;100511.84;4164179;28;20037;-68
2022/08/03 02:55:53;;;;;;;7.50;2.80;;;;;;;22.16;52.49;100513.69;4163949;28;20060;-68
2022/08/03 02:57:58;;;;;;;7.00;2.85;;;;;;;22.13;52.67;100517.28;4196051;28;20606;-67
2022/08/03 03:00:05;;;;;;;7.93;2.92;;;;;;;22.12;53.24;100512.03;4196060;28;20044;-68
2022/08/03 03:02:09;;;;;;;6.45;2.95;;;;;;;22.03;53.50;100515.00;4161739;28;20029;-68
2022/08/03 03:04:13;;;;;;;7.15;2.92;;;;;;;22.00;53.88;100512.47;4164092;28;20483;-68
2022/08/03 03:06:17;;;;;;;5.53;2.45;;;;;;;21.97;54.22;100516.06;4162809;28;20471;-67
2022/08/03 03:08:23;;;;;;;;;;;;;;;21.83;54.85;100513.88;4148315;28;20133;-69
2022/08/03 03:10:29;;;;;;;4.80;2.45;;;;;;;21.88;54.96;100517.22;4152444;28;19975;-68
2022/08/03 03:12:35;;;;;;;9.60;3.00;;;;;;;21.91;55.10;100513.63;4162242;28;20041;-67
2022/08/03 03:14:39;;;;;;;10.07;3.20;;;;;;;21.89;55.23;100516.31;4163836;28;20045;-68
2022/08/03 03:16:44;;;;;;;9.35;3.05;;;;;;;21.90;55.33;100509.22;4164093;28;20128;-68
2022/08/03 03:18:54;;;;;;;7.50;3.08;;;;;;;21.90;55.38;100512.75;4164139;28;20071;-67
2022/08/03 03:20:59;;;;;;;7.93;3.45;;;;;;;21.89;55.48;100508.38;4163073;28;20038;-68
2022/08/03 03:23:03;;;;;;;6.25;2.80;;;;;;;21.83;55.97;100516.50;4162475;28;20566;-68
2022/08/03 03:25:08;;;;;;;;;;;;;;;21.66;56.95;100518.81;4164447;28;20041;-68
2022/08/03 03:27:11;;;;;;;6.70;3.10;;;;;;;21.71;57.09;100515.13;4162807;28;19921;-67
2022/08/03 03:29:18;;;;;;;9.50;3.72;;;;;;;21.72;57.58;100508.03;4162118;28;20300;-67
2022/08/03 03:31:22;;;;;;;13.07;3.22;;;;;;;21.69;57.89;100514.28;4159008;28;20034;-67
2022/08/03 03:33:25;;;;;;;7.90;2.90;;;;;;;21.65;58.18;100511.78;4162281;28;20037;-68
2022/08/03 03:35:31;;;;;;;5.47;3.20;;;;;;;21.61;58.46;100514.53;4161656;28;20045;-68
2022/08/03 03:37:41;;;;;;;12.10;3.20;;;;;;;21.55;59.06;100512.09;4162493;28;20041;-67
2022/08/03 03:39:44;;;;;;;6.20;3.17;;;;;;;21.58;58.93;100517.28;4162738;28;20055;-67
2022/08/03 03:41:48;;;;;;;9.25;3.53;;;;;;;21.60;58.85;100518.09;4161247;28;20040;-68
2022/08/03 03:43:51;;;;;;;7.47;3.25;;;;;;;21.61;58.84;100521.59;4162412;28;20513;-68
2022/08/03 03:45:55;;;;;;;12.10;3.55;;;;;;;21.58;58.93;100519.91;4161937;28;20034;-67
2022/08/03 03:47:59;;;;;;;7.20;3.57;;;;;;;21.56;59.05;100523.53;4163009;28;20033;-67
2022/08/03 03:50:03;;;;;;;19.25;4.03;;;;;;;21.57;59.04;100519.97;4163098;28;20300;-68
2022/08/03 03:52:06;;;;;;;19.67;5.18;;;;;;;21.59;58.76;100521.63;4162792;28;20046;-68
2022/08/03 03:54:09;;;;;;;14.32;4.30;;;;;;;21.57;59.03;100523.47;4164942;28;20094;-67
2022/08/03 03:56:12;;;;;;;15.23;4.65;;;;;;;21.58;58.92;100519.91;4162292;28;20035;-67
2022/08/03 03:58:16;;;;;;;11.00;3.88;;;;;;;21.59;58.95;100524.28;4159861;28;20045;-68
2022/08/03 04:00:19;;;;;;;16.60;4.88;;;;;;;21.57;59.20;100514.69;4177236;28;20047;-68
2022/08/03 04:02:22;;;;;;;15.27;4.85;;;;;;;21.56;59.17;100516.44;4160640;28;20048;-68
2022/08/03 04:11:36;;;;;;;15.27;5.10;;;;;;;21.56;59.69;100513.78;4159603;28;20092;-67
2022/08/03 04:13:44;;;;;;;22.48;5.47;;;;;;;21.55;59.83;100520.03;4163126;28;20033;-67
2022/08/03 04:15:48;;;;;;;23.60;6.30;;;;;;;21.55;59.91;100524.44;4162387;28;20493;-67
2022/08/03 04:17:55;;;;;;;17.85;6.75;;;;;;;21.56;60.13;100526.16;4163660;28;20045;-67
2022/08/03 04:20:02;;;;;;;23.75;8.65;;;;;;;21.55;60.52;100522.66;4163422;28;20047;-68
2022/08/03 04:22:09;;;;;;;25.75;8.35;;;;;;;21.55;60.11;100522.66;4162903;28;20049;-68
2022/08/03 04:24:14;;;;;;;29.50;8.30;;;;;;;21.54;60.11;100531.50;4163386;28;20583;-68
2022/08/03 04:26:21;;;;;;;24.05;7.80;;;;;;;21.51;60.31;100525.44;4163737;28;20052;-67
2022/08/03 04:28:24;;;;;;;24.35;8.25;;;;;;;21.45;60.19;100526.47;4165323;28;20045;-68
2022/08/03 04:30:37;;;;;;;18.35;6.35;;;;;;;21.44;60.22;100532.66;4166551;28;20048;-68
2022/08/03 04:32:42;;;;;;;17.10;5.97;;;;;;;21.44;60.32;100530.03;4163661;28;20049;-68
2022/08/03 04:34:48;;;;;;;16.08;6.45;;;;;;;21.45;60.43;100534.41;4165493;28;20455;-68
2022/08/03 04:36:57;;;;;;;18.33;5.95;;;;;;;21.45;60.56;100531.75;4164787;28;20179;-68
2022/08/03 04:39:03;;;;;;;18.38;6.20;;;;;;;21.50;60.48;100535.13;4148459;28;20049;-68
2022/08/03 04:41:07;;;;;;;18.95;6.25;;;;;;;21.53;60.43;100532.41;4151314;28;20040;-68
2022/08/03 04:43:12;;;;;;;;;;;;;;;21.42;60.91;100540.66;4164838;28;20487;-68
2022/08/03 04:45:19;;;;;;;22.80;6.65;;;;;;;21.53;60.61;100536.84;4148348;28;19929;-68
2022/08/03 04:47:23;;;;;;;14.00;5.93;;;;;;;21.60;60.59;100536.59;4147144;28;20092;-68
2022/08/03 04:49:27;;;;;;;15.98;6.85;;;;;;;21.67;60.38;100539.94;4147154;28;20045;-68
2022/08/03 04:51:33;;;;;;;17.33;5.97;;;;;;;21.67;60.41;100534.66;4155556;28;20064;-68
2022/08/03 04:53:37;;;;;;;13.75;5.63;;;;;;;21.70;60.27;100541.59;4164434;28;20041;-68
2022/08/03 04:55:40;;;;;;;13.55;5.15;;;;;;;21.67;59.50;100528.47;4165934;28;20053;-68
2022/08/03 04:57:42;;;;;;;16.92;5.72;;;;;;;21.68;59.19;100540.81;4166178;28;20064;-68
2022/08/03 04:59:48;;;;;;;12.02;5.20;;;;;;;21.69;59.17;100537.25;4164303;28;20048;-68
2022/08/03 05:01:50;;;;;;;11.27;5.35;;;;;;;21.69;59.50;100539.91;4162304;28;20041;-68
2022/08/03 05:03:55;;;;;;;12.38;5.47;;;;;;;21.64;60.17;100536.50;4164533;28;20116;-67
2022/08/03 05:05:58;;;;;;;12.85;5.32;;;;;;;21.64;60.20;100544.44;4165297;28;20124;-67
2022/08/03 05:08:04;;;;;;;11.85;5.80;;;;;;;21.69;60.06;100540.75;4163978;28;20044;-67
2022/08/03 05:10:14;;;;;;;18.45;5.05;;;;;;;21.75;59.52;100537.06;4164411;28;20037;-68
2022/08/03 05:12:18;;;;;;;20.48;5.93;;;;;;;21.79;59.53;100550.13;4164675;28;20041;-68
2022/08/03 05:14:21;;;;;;;16.02;5.63;;;;;;;21.82;59.32;100541.25;4163124;28;20072;-68
2022/08/03 05:16:30;;;;;;;12.38;5.00;;;;;;;21.85;58.96;100540.28;4163886;28;20045;-67
2022/08/03 05:18:33;;;;;;;12.65;5.00;;;;;;;21.88;58.68;100542.84;4167577;28;21217;-67
2022/08/03 05:20:37;;;;;;;14.43;4.68;;;;;;;21.93;58.55;100536.47;4165605;28;20045;-68
2022/08/03 05:22:40;;;;;;;12.60;4.95;;;;;;;21.94;58.51;100540.84;4165260;28;20057;-68
2022/08/03 05:24:43;;;;;;;9.55;4.22;;;;;;;21.99;58.18;100539.84;4165637;28;20048;-68
2022/08/03 05:26:45;;;;;;;14.32;4.90;;;;;;;22.03;58.41;100546.78;4165741;28;20111;-67
2022/08/03 05:28:48;;;;;;;13.88;5.97;;;;;;;22.08;58.72;100539.56;4164443;28;20042;-68
2022/08/03 05:30:52;;;;;;;24.90;5.72;;;;;;;22.15;58.94;100541.06;4197378;28;20036;-68
2022/08/03 05:32:55;;;;;;;18.17;6.88;;;;;;;22.20;59.29;100546.22;4164987;28;20103;-68
2022/08/03 05:34:58;;;;;;;12.57;5.22;;;;;;;22.23;58.74;100546.97;4165330;28;20026;-67
2022/08/03 05:37:22;;;;;;;18.08;6.28;;;;;;;22.28;59.39;100545.06;4164445;28;20080;-68
2022/08/03 05:39:25;;;;;;;18.08;6.10;;;;;;;22.31;59.52;100547.59;4163512;28;20446;-68
2022/08/03 05:41:28;;;;;;;15.10;6.25;;;;;;;22.36;59.54;100543.97;4165264;28;20384;-68
2022/08/03 05:43:39;;;;;;;19.25;7.30;;;;;;;22.40;59.96;100551.75;4163968;28;20045;-68
2022/08/03 05:45:42;;;;;;;22.95;7.50;;;;;;;22.45;60.02;100554.25;4167169;28;20540;-68
2022/08/03 05:47:45;;;;;;;17.10;6.40;;;;;;;22.48;59.98;100554.16;4163664;28;20090;-67
2022/08/03 05:49:47;;;;;;;10.95;4.47;;;;;;;22.65;58.89;100557.09;4158202;28;20458;-63
2022/08/03 05:51:51;;;;;;;10.70;4.70;;;;;;;22.92;58.36;100549.06;4163641;28;20037;-63
2022/08/03 05:54:15;;;;;;;10.90;4.85;;;;;;;23.15;57.42;100552.72;4169321;28;20038;-63
2022/08/03 05:56:22;;;;;;;15.27;5.13;;;;;;;23.29;57.05;100550.44;4161173;28;20063;-63
2022/08/03 05:58:25;;;;;;;13.05;5.05;;;;;;;23.42;56.20;100548.19;4159412;28;20042;-63
2022/08/03 06:00:31;;;;;;;12.77;5.03;;;;;;;23.53;55.52;100553.94;4160630;28;20495;-63
2022/08/03 06:02:34;;;;;;;12.68;5.15;;;;;;;23.59;54.92;100549.31;4163103;28;20045;-63
2022/08/03 06:04:37;;;;;;;13.00;5.22;;;;;;;23.63;54.62;100557.09;4163017;28;20383;-63
2022/08/03 06:06:40;;;;;;;13.77;5.22;;;;;;;23.66;54.52;100549.03;4154611;28;20091;-63
2022/08/03 06:08:47;;;;;;;11.80;4.93;;;;;;;23.73;54.27;100554.09;4157127;28;20123;-63
2022/08/03 06:10:51;;;;;;;17.75;4.97;;;;;;;23.77;54.21;100558.34;4163711;28;20048;-63
2022/08/03 06:12:54;;;;;;;16.23;4.90;;;;;;;23.82;54.21;100554.59;4167327;28;20037;-63
2022/08/03 06:14:57;;;;;;;18.90;6.03;;;;;;;23.87;54.51;100551.78;4159686;28;20045;-63
2022/08/03 06:17:00;;;;;;;18.75;4.82;;;;;;;23.95;54.21;100548.84;4176326;28;20047;-62
2022/08/03 06:19:03;;;;;;;24.52;6.03;;;;;;;24.02;54.88;100551.19;4162803;28;20037;-62
2022/08/03 06:21:06;;;;;;;31.10;7.07;;;;;;;24.11;54.56;100552.59;4162252;28;20041;-63
2022/08/03 06:23:18;;;;;;;23.25;6.90;;;;;;;24.18;54.39;100554.09;4162120;28;20041;-63
2022/08/03 06:25:21;;;;;;;19.95;5.40;;;;;;;24.25;53.68;100548.50;4156588;28;20084;-63
2022/08/03 06:27:25;;;;;;;15.48;5.18;;;;;;;24.30;53.76;100549.16;4164185;28;20041;-63
2022/08/03 06:29:39;;;;;;;16.33;5.35;;;;;;;24.32;53.32;100545.53;4161767;28;20095;-63
2022/08/03 06:31:41;;;;;;;13.35;4.95;;;;;;;24.38;52.90;100553.22;4163229;28;20038;-63
2022/08/03 06:33:44;;;;;;;14.40;5.15;;;;;;;24.44;52.64;100554.78;4163033;28;20045;-63
2022/08/03 06:36:07;;;;;;;13.45;4.50;;;;;;;24.45;52.30;100550.34;4162044;28;20527;-63
2022/08/03 06:38:13;;;;;;;12.40;5.18;;;;;;;24.45;52.13;100550.34;4162377;28;20133;-63
2022/08/03 06:40:18;;;;;;;10.10;4.13;;;;;;;24.54;51.98;100552.59;4155864;28;20507;-63
2022/08/03 06:42:27;;;;;;;11.32;4.18;;;;;;;24.55;51.94;100551.69;4162960;28;20041;-63
2022/08/03 06:44:30;;;;;;;16.98;4.88;;;;;;;24.60;51.40;100556.81;4162769;28;20026;-63
2022/08/03 06:46:33;;;;;;;14.45;4.95;;;;;;;24.69;51.20;100553.75;4163099;28;20037;-63
2022/08/03 06:48:36;;;;;;;13.18;4.30;;;;;;;24.77;51.14;100548.97;4161703;28;20054;-63
2022/08/03 06:50:41;;;;;;;16.43;5.47;;;;;;;24.81;50.73;100550.59;4161597;28;20091;-63
2022/08/03 06:52:44;;;;;;;9.82;4.00;;;;;;;24.87;50.05;100549.44;4162640;28;20346;-63
2022/08/03 06:54:47;;;;;;;11.82;5.30;;;;;;;24.79;48.80;100556.91;4158705;28;20037;-64
2022/08/03 06:56:50;;;;;;;7.50;3.92;;;;;;;24.87;48.40;100554.78;4163182;28;20034;-63
2022/08/03 06:58:54;;;;;;;13.73;4.80;;;;;;;24.95;48.38;100554.44;4161065;28;20047;-64
2022/08/03 07:00:57;;;;;;;11.30;4.35;;;;;;;25.01;48.35;100560.31;4159522;28;20060;-64
2022/08/03 07:03:00;;;;;;;10.43;4.45;;;;;;;25.12;48.19;100564.31;4163258;28;20037;-63
2022/08/03 07:05:03;;;;;;;9.95;4.38;;;;;;;25.16;47.19;100558.78;4202275;28;20032;-62
2022/08/03 07:07:06;;;;;;;10.93;3.92;;;;;;;25.23;47.20;100559.34;4161709;28;20047;-63
2022/08/03 07:09:09;;;;;;;12.30;4.45;;;;;;;25.30;47.05;100562.63;4166585;28;20487;-63
2022/08/03 07:11:12;;;;;;;9.88;3.88;;;;;;;25.40;46.93;100567.47;4167027;28;20485;-62
2022/08/03 07:13:15;;;;;;;11.15;4.68;;;;;;;25.48;44.47;100563.59;4164271;28;20034;-63
2022/08/03 07:15:19;;;;;;;16.38;5.45;;;;;;;25.60;43.28;100568.38;4156785;28;20049;-63
2022/08/03 07:17:42;;;;;;;12.23;5.03;;;;;;;25.52;43.56;100570.50;4144177;28;20112;-63
2022/08/03 07:19:45;;;;;;;9.52;4.18;;;;;;;25.47;44.02;100565.41;4157200;28;20288;-63
2022/08/03 07:21:47;;;;;;;6.15;3.65;;;;;;;25.51;44.55;100571.44;4193316;28;20047;-63
2022/08/03 07:23:50;;;;;;;6.95;3.65;;;;;;;25.60;44.15;100571.03;4157472;28;20076;-63
2022/08/03 07:25:53;;;;;;;17.52;5.28;;;;;;;25.64;44.04;100569.06;4161012;28;20040;-63
2022/08/03 07:27:56;;;;;;;98.25;45.13;;;;;;;25.69;43.72;100575.91;4162742;28;20052;-63
2022/08/03 07:30:00;;;;;;;56.20;24.98;;;;;;;25.64;44.08;100567.25;4162617;28;20415;-64
2022/08/03 07:32:04;;;;;;;29.13;11.80;;;;;;;25.78;43.26;100578.13;4160147;28;20053;-64
2022/08/03 07:34:07;;;;;;;14.20;6.18;;;;;;;25.85;43.17;100572.53;4161640;28;20549;-63
2022/08/03 07:36:10;;;;;;;14.00;5.78;;;;;;;25.79;43.28;100574.53;4158832;28;20120;-64
2022/08/03 07:38:13;;;;;;;10.30;4.60;;;;;;;25.74;43.08;100565.91;4158818;28;20091;-64
2022/08/03 07:40:16;;;;;;;12.35;5.05;;;;;;;25.75;42.69;100567.63;4155556;28;20041;-64
2022/08/03 07:42:19;;;;;;;10.25;4.95;;;;;;;25.78;42.87;100566.63;4158738;28;20041;-64
2022/08/03 07:44:22;;;;;;;10.23;4.30;;;;;;;25.77;42.66;100571.09;4160416;28;20060;-64
2022/08/03 07:46:25;;;;;;;10.32;4.65;;;;;;;25.82;42.27;100567.31;4167213;28;20029;-64
2022/08/03 07:48:29;;;;;;;10.40;4.55;;;;;;;25.88;42.02;100556.41;4166449;28;20052;-65
2022/08/03 07:50:32;;;;;;;;;;;;;;;25.88;42.81;100575.03;4159726;28;20483;-65
2022/08/03 07:52:51;;;;;;;7.50;3.90;;;;;;;26.00;42.70;100571.81;4160463;28;19986;-65
2022/08/03 07:54:54;;;;;;;14.15;4.85;;;;;;;26.03;41.92;100560.13;4168766;28;20041;-65
2022/08/03 07:56:57;;;;;;;9.00;3.90;;;;;;;26.09;41.79;100570.50;4170567;28;20046;-65
2022/08/03 07:59:01;;;;;;;7.22;3.63;;;;;;;26.09;41.43;100570.50;4192088;28;20083;-66
2022/08/03 08:01:04;;;;;;;8.55;3.53;;;;;;;26.16;41.38;100561.25;4162566;28;20040;-64
2022/08/03 08:03:07;;;;;;;8.60;3.65;;;;;;;26.28;41.07;100562.44;4165712;28;20092;-65
2022/08/03 08:05:12;;;;;;;7.97;3.50;;;;;;;26.39;41.03;100554.78;4166573;28;20034;-65
2022/08/03 08:07:15;;;;;;;6.25;3.80;;;;;;;26.52;39.23;100562.16;4165373;28;20036;-64
2022/08/03 08:09:20;;;;;;;5.97;3.78;;;;;;;26.64;38.92;100559.72;4166537;28;20411;-64
2022/08/03 08:11:22;;;;;;;6.75;2.97;;;;;;;26.59;39.54;100558.22;4164296;28;20034;-64
2022/08/03 08:13:26;;;;;;;8.18;3.90;;;;;;;26.64;39.47;100551.72;4165980;28;20033;-64
2022/08/03 08:15:29;;;;;;;7.57;3.42;;;;;;;26.65;39.19;100552.59;4164823;28;20064;-64
2022/08/03 08:17:40;;;;;;;7.03;2.92;;;;;;;26.71;39.80;100554.09;4166908;28;20044;-64
2022/08/03 08:19:43;;;;;;;7.90;3.63;;;;;;;26.79;39.13;100555.41;4170188;28;20045;-63
2022/08/03 08:21:56;;;;;;;8.43;3.58;;;;;;;26.87;39.00;100544.38;4166804;28;20047;-64
2022/08/03 08:24:55;;;;;;;7.72;2.97;;;;;;;26.95;39.06;100550.16;4161698;28;20048;-64
2022/08/03 08:26:58;;;;;;;8.38;3.53;;;;;;;26.99;38.48;100546.38;4163063;28;20037;-65
2022/08/03 08:29:01;;;;;;;9.75;3.90;;;;;;;27.09;38.45;100551.25;4159459;28;20041;-64
2022/08/03 08:31:04;;;;;;;13.18;3.63;;;;;;;27.20;38.37;100539.97;4184751;28;20040;-64
2022/08/03 08:33:07;;;;;;;8.57;3.50;;;;;;;27.26;38.06;100547.66;4163264;28;20398;-65
2022/08/03 08:35:25;;;;;;;6.53;3.03;;;;;;;27.34;37.90;100545.47;4157281;28;21649;-62
2022/08/03 08:37:30;;;;;;;7.57;2.65;;;;;;;27.40;38.32;100539.78;4163355;28;20060;-66
2022/08/03 08:39:32;;;;;;;;;;;;;;;27.34;38.29;100543.66;4163453;28;20092;-65
2022/08/03 08:41:35;;;;;;;7.05;2.95;;;;;;;27.38;37.16;100541.69;4162514;28;19929;-65
2022/08/03 08:43:38;;;;;;;7.57;3.13;;;;;;;27.50;37.67;100546.34;4163151;28;20042;-65
2022/08/03 08:45:42;;;;;;;7.78;3.30;;;;;;;27.60;37.12;100540.47;4166907;28;20037;-65
2022/08/03 08:47:46;;;;;;;7.32;3.10;;;;;;;27.64;37.14;100540.25;4167141;28;20152;-65
2022/08/03 08:49:54;;;;;;;5.45;3.33;;;;;;;27.67;36.99;100541.84;4167569;28;20041;-65
2022/08/03 08:52:13;;;;;;;5.07;2.70;;;;;;;27.68;37.09;100535.56;4165718;28;20457;-65
2022/08/03 08:54:33;;;;;;;5.85;3.30;;;;;;;27.74;36.86;100532.53;4172110;28;20041;-65
2022/08/03 08:56:37;;;;;;;7.38;2.83;;;;;;;27.81;36.51;100535.75;4167029;28;20045;-65
2022/08/03 08:58:42;;;;;;;;;;;;;;;27.78;36.66;100539.44;4168375;28;20414;-66
2022/08/03 09:00:47;;;;;;;7.30;2.85;;;;;;;27.90;36.71;100531.69;4164818;28;20357;-65
2022/08/03 09:02:50;;;;;;;9.63;3.47;;;;;;;28.04;36.28;100529.13;4168161;28;20033;-65
2022/08/03 09:04:53;;;;;;;9.40;2.70;;;;;;;28.12;36.25;100537.53;4165453;28;20049;-65
2022/08/03 09:06:56;;;;;;;11.13;2.88;;;;;;;28.12;35.87;100537.53;4165853;28;20537;-65
2022/08/03 09:09:19;;;;;;;6.85;2.78;;;;;;;28.21;36.15;100530.78;4162105;28;20049;-65
2022/08/03 09:11:43;;;;;;;9.48;2.63;;;;;;;28.36;35.71;100532.56;4159509;28;20045;-65
2022/08/03 09:14:07;;;;;;;5.40;2.80;;;;;;;28.42;35.66;100536.69;4165173;28;20038;-65
2022/08/03 09:16:15;;;;;;;6.90;2.53;;;;;;;28.52;35.44;100540.53;4162358;28;20095;-66
2022/08/03 09:18:29;;;;;;;7.75;3.17;;;;;;;28.67;34.93;100527.22;4162010;28;20059;-65
2022/08/03 09:20:35;;;;;;;6.82;2.75;;;;;;;28.69;34.52;100528.00;4166805;28;20409;-65
2022/08/03 09:22:53;;;;;;;8.18;3.20;;;;;;;28.99;33.27;100529.75;4162677;28;20049;-65
2022/08/03 09:24:57;;;;;;;8.40;2.88;;;;;;;29.09;33.50;100522.88;4164654;28;20053;-64
2022/08/03 09:27:22;;;;;;;7.45;2.80;;;;;;;29.08;33.32;100531.84;4164994;28;20108;-64
2022/08/03 09:29:25;;;;;;;8.00;2.97;;;;;;;29.01;34.21;100535.84;4158447;28;20040;-64
2022/08/03 09:31:33;;;;;;;11.60;3.42;;;;;;;29.05;34.62;100532.91;4163570;28;20041;-64
2022/08/03 09:33:47;;;;;;;6.07;2.90;;;;;;;29.15;33.86;100526.97;4164500;28;20033;-65
2022/08/03 09:35:50;;;;;;;10.93;2.75;;;;;;;29.17;33.93;100525.91;4159899;28;20029;-65
2022/08/03 09:38:13;;;;;;;7.38;2.65;;;;;;;29.27;33.71;100528.91;4168367;28;20447;-65
2022/08/03 09:40:35;;;;;;;6.72;2.97;;;;;;;29.50;32.72;100522.09;4169419;28;20496;-64
2022/08/03 09:42:56;;;;;;;7.28;2.15;;;;;;;29.43;33.45;100526.13;4165321;28;20045;-65
2022/08/03 09:44:59;;;;;;;3.55;2.05;;;;;;;29.40;33.67;100526.31;4163117;28;20042;-65
2022/08/03 09:47:02;;;;;;;5.55;2.78;;;;;;;29.51;33.68;100522.94;4166229;28;20033;-64
2022/08/03 09:49:11;;;;;;;5.78;2.90;;;;;;;29.75;32.57;100521.34;4171139;28;20090;-64
2022/08/03 09:51:17;;;;;;;8.25;3.30;;;;;;;29.89;32.10;100515.13;4167120;28;20464;-63
2022/08/03 09:53:44;;;;;;;5.82;2.40;;;;;;;29.80;33.52;100512.16;4167632;28;20049;-65
2022/08/03 09:56:03;;;;;;;6.28;2.95;;;;;;;29.78;32.92;100517.59;4165618;28;20041;-65